createdAt,value
2023-05-06T00:00:43.141Z,66.71
2023-05-06T00:02:45.406Z,66.37
2023-05-06T00:04:48.001Z,67.10
2023-05-06T00:06:50.478Z,66.91
2023-05-06T00:08:52.864Z,67.03
2023-05-06T00:10:55.277Z,67.11
2023-05-06T00:12:57.588Z,67.07
2023-05-06T00:14:59.733Z,66.97
2023-05-06T00:17:02.273Z,67.38
2023-05-06T00:19:04.525Z,67.00
2023-05-06T00:21:07.119Z,66.64
2023-05-06T00:23:09.238Z,67.15
2023-05-06T00:25:11.687Z,67.25
2023-05-06T00:27:13.949Z,68.32
2023-05-06T00:29:16.275Z,68.64
2023-05-06T00:31:18.498Z,68.11
2023-05-06T00:33:20.721Z,68.19
2023-05-06T00:35:22.812Z,68.03
2023-05-06T00:37:25.042Z,67.86
2023-05-06T00:39:27.322Z,67.82
2023-05-06T00:41:33.504Z,68.44
2023-05-06T00:43:35.756Z,68.23
2023-05-06T00:45:38.409Z,68.34
2023-05-06T00:47:40.810Z,68.12
2023-05-06T00:49:43.209Z,68.54
2023-05-06T00:51:45.668Z,68.17
2023-05-06T00:53:47.927Z,67.86
2023-05-06T00:55:51.616Z,67.98
2023-05-06T00:57:54.481Z,68.69
2023-05-06T00:59:56.627Z,68.49
2023-05-06T01:01:59.448Z,68.44
2023-05-06T01:04:01.804Z,68.36
2023-05-06T01:06:12.352Z,68.09
2023-05-06T01:08:24.021Z,67.93
2023-05-06T01:10:27.684Z,67.69
2023-05-06T01:12:37.832Z,68.11
2023-05-06T01:14:44.560Z,68.37
2023-05-06T01:16:51.033Z,69.33
2023-05-06T01:18:55.181Z,69.42
2023-05-06T01:20:57.562Z,69.33
2023-05-06T01:23:01.448Z,69.40
2023-05-06T01:25:03.563Z,68.88
2023-05-06T01:27:06.491Z,69.22
2023-05-06T01:29:08.923Z,69.20
2023-05-06T01:31:16.929Z,69.07
2023-05-06T01:33:30.624Z,69.36
2023-05-06T01:35:39.300Z,69.29
2023-05-06T01:37:47.692Z,68.94
2023-05-06T01:39:50.380Z,69.40
2023-05-06T01:41:53.906Z,69.60
2023-05-06T01:44:00.662Z,69.95
2023-05-06T01:46:03.735Z,70.27
2023-05-06T01:48:06.994Z,69.91
2023-05-06T01:50:10.061Z,69.68
2023-05-06T01:52:11.988Z,69.29
2023-05-06T01:54:14.337Z,69.23
2023-05-06T01:56:16.722Z,69.73
2023-05-06T01:58:18.722Z,69.71
2023-05-06T02:00:21.032Z,69.55
2023-05-06T02:02:24.539Z,69.49
2023-05-06T02:04:26.540Z,69.35
2023-05-06T02:06:28.459Z,69.76
2023-05-06T02:08:30.669Z,69.46
2023-05-06T02:10:32.674Z,69.63
2023-05-06T02:12:34.907Z,69.93
2023-05-06T02:14:36.937Z,69.57
2023-05-06T02:16:38.944Z,69.59
2023-05-06T02:18:41.730Z,69.58
2023-05-06T02:20:43.740Z,70.19
2023-05-06T02:22:45.981Z,70.11
2023-05-06T02:24:48.059Z,69.90
2023-05-06T02:26:50.079Z,69.52
2023-05-06T02:28:52.014Z,69.52
2023-05-06T02:30:57.290Z,69.44
2023-05-06T02:32:59.264Z,69.70
2023-05-06T02:35:01.328Z,69.31
2023-05-06T02:37:03.643Z,69.43
2023-05-06T02:39:05.896Z,69.76
2023-05-06T02:41:07.903Z,69.25
2023-05-06T02:43:09.954Z,68.97
2023-05-06T02:45:13.234Z,70.09
2023-05-06T02:47:15.623Z,69.92
2023-05-06T02:49:17.848Z,70.68
2023-05-06T02:51:19.856Z,70.70
2023-05-06T02:53:22.162Z,71.30
2023-05-06T02:55:24.297Z,71.14
2023-05-06T02:57:26.562Z,70.36
2023-05-06T02:59:28.638Z,70.15
2023-05-06T03:01:30.669Z,70.47
2023-05-06T03:03:33.774Z,70.06
2023-05-06T03:05:35.992Z,70.53
2023-05-06T03:07:38.728Z,70.86
2023-05-06T03:09:40.856Z,71.06
2023-05-06T03:11:42.900Z,70.94
2023-05-06T03:13:44.895Z,70.79
2023-05-06T03:15:52.432Z,70.79
2023-05-06T03:17:54.492Z,70.85
2023-05-06T03:19:56.847Z,70.58
2023-05-06T03:21:58.868Z,71.21
2023-05-06T03:24:01.172Z,71.99
2023-05-06T03:26:03.167Z,71.72
2023-05-06T03:28:05.654Z,71.21
2023-05-06T03:30:08.752Z,71.93
2023-05-06T03:32:10.687Z,71.59
2023-05-06T03:34:12.710Z,71.92
2023-05-06T03:36:14.843Z,72.31
2023-05-06T03:38:17.132Z,72.18
2023-05-06T03:40:19.114Z,72.23
2023-05-06T03:42:21.199Z,71.88
2023-05-06T03:44:23.187Z,72.53
2023-05-06T03:46:25.191Z,72.75
2023-05-06T03:48:27.180Z,72.39
2023-05-06T03:50:29.153Z,72.29
2023-05-06T03:52:31.225Z,72.04
2023-05-06T03:54:33.601Z,72.09
2023-05-06T03:56:36.256Z,71.66
2023-05-06T03:58:38.255Z,71.49
2023-05-06T04:00:40.289Z,71.70
2023-05-06T04:02:42.853Z,71.11
2023-05-06T04:04:44.941Z,71.31
2023-05-06T04:06:47.259Z,71.75
2023-05-06T04:08:49.314Z,71.71
2023-05-06T04:10:51.310Z,72.16
2023-05-06T04:12:53.389Z,71.87
2023-05-06T04:14:55.659Z,71.75
2023-05-06T04:16:57.695Z,71.69
2023-05-06T04:18:59.631Z,71.77
2023-05-06T04:21:01.619Z,71.86
2023-05-06T04:23:03.660Z,71.82
2023-05-06T04:25:06.932Z,71.95
2023-05-06T04:27:08.851Z,72.28
2023-05-06T04:29:10.895Z,72.55
2023-05-06T04:31:14.845Z,73.34
2023-05-06T04:33:16.920Z,73.02
2023-05-06T04:35:19.174Z,72.92
2023-05-06T04:37:21.343Z,73.74
2023-05-06T04:39:23.384Z,73.66
2023-05-06T04:41:26.311Z,73.62
2023-05-06T04:43:28.357Z,73.48
2023-05-06T04:45:30.463Z,73.16
2023-05-06T04:47:32.599Z,73.04
2023-05-06T04:49:35.194Z,72.95
2023-05-06T04:51:37.169Z,72.89
2023-05-06T04:53:39.230Z,72.95
2023-05-06T04:55:41.405Z,72.79
2023-05-06T04:57:43.494Z,72.80
2023-05-06T04:59:45.454Z,73.01
2023-05-06T05:01:47.439Z,72.74
2023-05-06T05:03:49.727Z,72.74
2023-05-06T05:05:52.191Z,72.63
2023-05-06T05:07:54.247Z,72.78
2023-05-06T05:09:56.291Z,73.10
2023-05-06T05:11:58.249Z,72.81
2023-05-06T05:14:02.146Z,72.90
2023-05-06T05:16:05.008Z,72.93
2023-05-06T05:18:07.002Z,72.93
2023-05-06T05:20:09.625Z,72.56
2023-05-06T05:22:11.976Z,72.29
2023-05-06T05:24:13.926Z,72.39
2023-05-06T05:26:15.934Z,72.06
2023-05-06T05:28:17.817Z,72.54
2023-05-06T05:30:19.855Z,72.91
2023-05-06T05:32:22.001Z,73.31
2023-05-06T05:34:24.293Z,73.56
2023-05-06T05:36:28.393Z,73.09
2023-05-06T05:38:30.428Z,73.33
2023-05-06T05:40:32.429Z,73.22
2023-05-06T05:42:34.455Z,73.83
2023-05-06T05:44:36.651Z,73.15
2023-05-06T05:46:38.846Z,73.23
2023-05-06T05:48:40.881Z,73.23
2023-05-06T05:50:42.788Z,73.65
2023-05-06T05:52:44.719Z,73.35
2023-05-06T05:54:46.705Z,73.29
2023-05-06T05:56:48.898Z,72.80
2023-05-06T05:58:51.017Z,73.10
2023-05-06T06:00:53.109Z,73.58
2023-05-06T06:02:55.573Z,73.54
2023-05-06T06:04:57.744Z,72.64
2023-05-06T06:07:01.968Z,72.95
2023-05-06T06:09:04.534Z,72.64
2023-05-06T06:11:06.935Z,72.68
2023-05-06T06:13:08.946Z,72.54
2023-05-06T06:15:11.948Z,72.50
2023-05-06T06:17:15.577Z,72.89
2023-05-06T06:19:18.058Z,72.13
2023-05-06T06:21:20.109Z,71.68
2023-05-06T06:23:22.485Z,71.90
2023-05-06T06:25:24.477Z,72.01
2023-05-06T06:27:26.563Z,72.28
2023-05-06T06:29:28.800Z,72.16
2023-05-06T06:31:30.849Z,72.76
2023-05-06T06:33:32.852Z,72.29
2023-05-06T06:35:35.017Z,71.67
2023-05-06T06:37:37.020Z,71.58
2023-05-06T06:39:39.072Z,71.06
2023-05-06T06:41:41.066Z,71.28
2023-05-06T06:43:43.193Z,71.08
2023-05-06T06:45:47.961Z,70.95
2023-05-06T06:47:50.331Z,70.81
2023-05-06T06:49:52.617Z,70.14
2023-05-06T06:51:56.875Z,69.61
2023-05-06T06:53:59.015Z,69.71
2023-05-06T06:56:01.351Z,69.67
2023-05-06T06:58:03.468Z,69.13
2023-05-06T07:00:06.256Z,70.02
2023-05-06T07:02:08.420Z,69.39
2023-05-06T07:04:10.400Z,70.03
2023-05-06T07:06:12.702Z,69.86
2023-05-06T07:08:15.219Z,70.66
2023-05-06T07:10:17.186Z,69.97
2023-05-06T07:12:19.186Z,70.16
2023-05-06T07:14:21.245Z,69.82
2023-05-06T07:16:23.341Z,69.50
2023-05-06T07:18:25.482Z,69.72
2023-05-06T07:20:27.603Z,70.57
2023-05-06T07:22:29.822Z,70.17
2023-05-06T07:24:31.811Z,69.24
2023-05-06T07:26:36.756Z,70.12
2023-05-06T07:28:38.802Z,70.02
2023-05-06T07:30:40.877Z,70.03
2023-05-06T07:32:43.643Z,70.61
2023-05-06T07:34:45.739Z,70.72
2023-05-06T07:36:47.804Z,70.06
2023-05-06T07:38:50.076Z,70.27
2023-05-06T07:40:52.187Z,70.37
2023-05-06T07:42:54.415Z,69.93
2023-05-06T07:44:56.514Z,70.23
2023-05-06T07:46:58.715Z,69.86
2023-05-06T07:49:01.082Z,69.93
2023-05-06T07:51:04.014Z,69.20
2023-05-06T07:53:06.321Z,69.98
2023-05-06T07:55:10.283Z,70.87
2023-05-06T07:57:12.609Z,69.56
2023-05-06T07:59:14.908Z,69.70
2023-05-06T08:01:16.910Z,69.98
2023-05-06T08:03:19.461Z,70.20
2023-05-06T08:05:21.681Z,70.12
2023-05-06T08:07:23.857Z,70.34
2023-05-06T08:09:25.965Z,69.63
2023-05-06T08:11:27.940Z,70.41
2023-05-06T08:13:30.839Z,71.00
2023-05-06T08:15:32.935Z,71.25
2023-05-06T08:17:35.027Z,72.15
2023-05-06T08:19:37.221Z,72.06
2023-05-06T08:21:39.321Z,72.50
2023-05-06T08:23:41.660Z,72.16
2023-05-06T08:25:43.695Z,73.68
2023-05-06T08:27:46.072Z,74.91
2023-05-06T08:29:48.147Z,75.10
2023-05-06T08:31:50.228Z,74.01
2023-05-06T08:33:54.400Z,73.85
2023-05-06T08:35:58.712Z,75.62
2023-05-06T08:38:01.229Z,74.53
2023-05-06T08:40:05.423Z,74.57
2023-05-06T08:42:11.920Z,74.03
2023-05-06T08:44:18.675Z,74.53
2023-05-06T08:46:21.002Z,73.96
2023-05-06T08:48:23.140Z,73.30
2023-05-06T08:50:26.092Z,73.97
2023-05-06T08:52:28.906Z,74.84
2023-05-06T08:54:34.823Z,75.87
2023-05-06T08:56:38.703Z,74.47
2023-05-06T08:58:46.199Z,74.53
2023-05-06T09:00:48.765Z,74.81
2023-05-06T09:02:50.894Z,75.55
2023-05-06T09:04:54.409Z,76.73
2023-05-06T09:06:59.286Z,76.61
2023-05-06T09:09:01.461Z,75.29
2023-05-06T09:11:03.648Z,74.85
2023-05-06T09:13:05.714Z,75.15
2023-05-06T09:15:09.652Z,74.62
2023-05-06T09:17:24.276Z,75.78
2023-05-06T09:19:27.725Z,75.28
2023-05-06T09:21:34.954Z,76.07
2023-05-06T09:23:38.508Z,74.95
2023-05-06T09:25:41.176Z,74.47
2023-05-06T09:27:43.279Z,73.70
2023-05-06T09:30:01.936Z,73.07
2023-05-06T09:32:09.166Z,74.74
2023-05-06T09:34:12.147Z,74.79
2023-05-06T09:36:14.566Z,75.54
2023-05-06T09:38:16.684Z,74.55
2023-05-06T09:40:18.925Z,74.18
2023-05-06T09:42:25.667Z,74.35
2023-05-06T09:44:28.085Z,72.92
2023-05-06T09:46:30.615Z,72.08
2023-05-06T09:48:32.966Z,71.81
2023-05-06T09:50:36.372Z,73.22
2023-05-06T09:52:38.676Z,73.00
2023-05-06T09:54:41.990Z,74.06
2023-05-06T09:56:46.749Z,73.98
2023-05-06T09:58:50.372Z,74.73
2023-05-06T10:00:53.802Z,75.86
2023-05-06T10:02:57.323Z,74.79
2023-05-06T10:05:01.133Z,74.77
2023-05-06T10:07:04.177Z,75.29
2023-05-06T10:09:08.157Z,74.89
2023-05-06T10:11:11.061Z,74.97
2023-05-06T10:13:14.318Z,76.26
2023-05-06T10:15:17.069Z,75.90
2023-05-06T10:17:19.608Z,74.92
2023-05-06T10:19:26.126Z,74.77
2023-05-06T10:21:32.673Z,72.91
2023-05-06T10:23:40.667Z,73.50
2023-05-06T10:25:43.999Z,74.95
2023-05-06T10:27:47.099Z,75.65
2023-05-06T10:29:49.597Z,76.36
2023-05-06T10:31:55.914Z,76.77
2023-05-06T10:34:01.301Z,75.99
2023-05-06T10:36:10.149Z,76.28
2023-05-06T10:38:18.492Z,74.21
2023-05-06T10:40:21.437Z,73.77
2023-05-06T10:42:28.613Z,74.12
2023-05-06T10:44:37.062Z,75.75
2023-05-06T10:46:45.682Z,74.88
2023-05-06T10:48:54.181Z,75.19
2023-05-06T10:51:02.496Z,75.05
2023-05-06T10:53:04.526Z,75.09
2023-05-06T10:55:27.980Z,75.70
2023-05-06T10:57:41.459Z,75.49
2023-05-06T10:59:47.532Z,75.42
2023-05-06T11:01:56.189Z,74.86
2023-05-06T11:03:58.800Z,74.65
2023-05-06T11:06:01.315Z,75.28
2023-05-06T11:08:10.667Z,75.32
2023-05-06T11:10:12.873Z,74.88
2023-05-06T11:12:21.136Z,76.25
2023-05-06T11:14:27.823Z,76.42
2023-05-06T11:16:42.549Z,77.31
2023-05-06T11:18:45.025Z,77.06
2023-05-06T11:20:47.143Z,76.35
2023-05-06T11:22:49.948Z,75.97
2023-05-06T11:24:52.250Z,76.13
2023-05-06T11:26:55.048Z,76.93
2023-05-06T11:29:02.397Z,77.92
2023-05-06T11:31:05.263Z,79.24
2023-05-06T11:33:08.854Z,79.34
2023-05-06T11:35:12.242Z,80.36
2023-05-06T11:37:26.007Z,78.47
2023-05-06T11:39:31.028Z,79.63
2023-05-06T11:41:33.152Z,79.92
2023-05-06T11:43:35.456Z,80.96
2023-05-06T11:45:44.315Z,79.65
2023-05-06T11:47:46.409Z,79.78
2023-05-06T11:49:52.427Z,79.55
2023-05-06T11:51:57.265Z,81.28
2023-05-06T11:54:05.266Z,80.55
2023-05-06T11:56:07.841Z,81.59
2023-05-06T11:58:14.874Z,81.06
2023-05-06T12:00:18.885Z,81.43
2023-05-06T12:02:21.249Z,81.22
2023-05-06T12:04:23.416Z,81.81
2023-05-06T12:06:31.795Z,81.33
2023-05-06T12:08:36.207Z,81.22
2023-05-06T12:10:39.945Z,81.78
2023-05-06T12:12:42.249Z,81.51
2023-05-06T12:14:45.852Z,82.62
2023-05-06T12:16:48.263Z,83.80
2023-05-06T12:18:53.797Z,82.99
2023-05-06T12:20:56.972Z,83.26
2023-05-06T12:23:05.468Z,83.42
2023-05-06T12:25:14.165Z,83.25
2023-05-06T12:27:31.242Z,83.45
2023-05-06T12:29:33.255Z,82.56
2023-05-06T12:31:35.499Z,82.85
2023-05-06T12:33:43.876Z,83.68
2023-05-06T12:35:46.098Z,83.26
2023-05-06T12:37:48.415Z,82.23
2023-05-06T12:39:50.485Z,82.63
2023-05-06T12:41:54.043Z,81.64
2023-05-06T12:43:56.477Z,81.89
2023-05-06T12:46:05.396Z,81.75
2023-05-06T12:48:08.496Z,81.25
2023-05-06T12:50:11.018Z,80.74
2023-05-06T12:52:13.798Z,80.20
2023-05-06T12:54:22.227Z,79.84
2023-05-06T12:56:24.416Z,80.32
2023-05-06T12:58:26.714Z,81.16
2023-05-06T13:00:29.027Z,81.67
2023-05-06T13:02:31.195Z,82.00
2023-05-06T13:04:33.384Z,82.34
2023-05-06T13:06:35.614Z,82.28
2023-05-06T13:08:37.917Z,82.05
2023-05-06T13:10:40.175Z,82.65
2023-05-06T13:12:42.550Z,83.04
2023-05-06T13:14:44.627Z,82.75
2023-05-06T13:16:47.117Z,83.17
2023-05-06T13:18:49.908Z,83.64
2023-05-06T13:20:52.111Z,82.95
2023-05-06T13:22:55.326Z,82.75
2023-05-06T13:24:57.838Z,82.70
2023-05-06T13:27:01.609Z,81.48
2023-05-06T13:29:04.471Z,81.86
2023-05-06T13:31:06.776Z,81.61
2023-05-06T13:33:09.166Z,81.54
2023-05-06T13:35:11.684Z,81.84
2023-05-06T13:37:14.135Z,82.23
2023-05-06T13:39:16.453Z,81.95
2023-05-06T13:41:19.959Z,82.99
2023-05-06T13:43:26.497Z,82.98
2023-05-06T13:45:29.196Z,82.43
2023-05-06T13:47:31.810Z,81.95
2023-05-06T13:49:34.976Z,82.61
2023-05-06T13:51:37.546Z,81.27
2023-05-06T13:53:39.681Z,81.22
2023-05-06T13:55:43.147Z,81.36
2023-05-06T13:57:45.388Z,81.29
2023-05-06T13:59:47.804Z,80.89
2023-05-06T14:01:50.314Z,81.29
2023-05-06T14:03:53.615Z,81.35
2023-05-06T14:05:56.584Z,82.35
2023-05-06T14:07:58.966Z,83.41
2023-05-06T14:10:01.266Z,84.00
2023-05-06T14:12:03.622Z,83.50
2023-05-06T14:14:06.694Z,83.24
2023-05-06T14:16:09.046Z,83.98
2023-05-06T14:18:11.327Z,84.42
2023-05-06T14:20:14.337Z,86.12
2023-05-06T14:22:16.871Z,84.77
2023-05-06T14:24:19.322Z,84.73
2023-05-06T14:26:21.693Z,84.72
2023-05-06T14:28:24.111Z,85.45
2023-05-06T14:30:26.599Z,85.66
2023-05-06T14:32:28.948Z,85.88
2023-05-06T14:34:31.179Z,86.65
2023-05-06T14:36:33.304Z,87.90
2023-05-06T14:38:35.325Z,87.17
2023-05-06T14:40:38.969Z,86.50
2023-05-06T14:42:41.142Z,86.92
2023-05-06T14:44:45.474Z,85.88
2023-05-06T14:46:48.259Z,85.42
2023-05-06T14:48:50.895Z,85.05
2023-05-06T14:50:53.374Z,84.19
2023-05-06T14:52:55.861Z,83.93
2023-05-06T14:54:58.128Z,84.91
2023-05-06T14:57:03.236Z,85.41
2023-05-06T14:59:05.739Z,84.39
2023-05-06T15:01:08.253Z,85.38
2023-05-06T15:03:10.482Z,84.76
2023-05-06T15:05:13.986Z,84.79
2023-05-06T15:07:16.917Z,85.67
2023-05-06T15:09:19.382Z,85.49
2023-05-06T15:11:21.702Z,85.53
2023-05-06T15:13:23.839Z,86.19
2023-05-06T15:15:26.010Z,85.43
2023-05-06T15:17:28.927Z,85.79
2023-05-06T15:19:31.080Z,85.59
2023-05-06T15:21:33.306Z,84.85
2023-05-06T15:23:35.498Z,84.57
2023-05-06T15:25:38.606Z,84.91
2023-05-06T15:27:41.119Z,84.41
2023-05-06T15:29:43.790Z,84.76
2023-05-06T15:31:46.473Z,85.90
2023-05-06T15:33:48.637Z,85.70
2023-05-06T15:35:50.912Z,85.73
2023-05-06T15:37:58.957Z,85.29
2023-05-06T15:40:01.430Z,85.50
2023-05-06T15:42:04.123Z,86.01
2023-05-06T15:44:06.653Z,84.97
2023-05-06T15:46:09.291Z,85.08
2023-05-06T15:48:11.668Z,85.68
2023-05-06T15:50:25.354Z,85.64
2023-05-06T15:52:35.664Z,85.29
2023-05-06T15:54:38.184Z,86.07
2023-05-06T15:56:41.610Z,86.39
2023-05-06T15:58:44.527Z,85.92
2023-05-06T16:00:46.820Z,85.80
2023-05-06T16:02:49.565Z,85.95
2023-05-06T16:04:52.088Z,87.48
2023-05-06T16:06:54.315Z,87.96
2023-05-06T16:08:56.902Z,87.71
2023-05-06T16:10:59.680Z,88.61
2023-05-06T16:13:01.833Z,87.34
2023-05-06T16:15:04.497Z,88.82
2023-05-06T16:17:06.703Z,89.05
2023-05-06T16:19:10.494Z,90.30
2023-05-06T16:21:13.231Z,91.32
2023-05-06T16:23:16.451Z,90.59
2023-05-06T16:25:18.582Z,91.25
2023-05-06T16:27:21.058Z,90.24
2023-05-06T16:29:23.284Z,90.08
2023-05-06T16:31:25.529Z,90.30
2023-05-06T16:33:28.072Z,89.63
2023-05-06T16:35:30.624Z,88.58
2023-05-06T16:37:32.819Z,88.41
2023-05-06T16:39:35.307Z,88.33
2023-05-06T16:41:37.310Z,87.82
2023-05-06T16:43:39.535Z,86.79
2023-05-06T16:45:45.787Z,86.49
2023-05-06T16:47:48.433Z,87.25
2023-05-06T16:49:51.047Z,86.68
2023-05-06T16:51:53.331Z,86.39
2023-05-06T16:53:55.481Z,86.83
2023-05-06T16:55:57.873Z,86.98
2023-05-06T16:58:02.230Z,86.41
2023-05-06T17:00:08.281Z,86.27
2023-05-06T17:02:10.666Z,86.74
2023-05-06T17:04:13.470Z,86.29
2023-05-06T17:06:15.794Z,87.58
2023-05-06T17:08:18.802Z,87.15
2023-05-06T17:10:22.354Z,87.16
2023-05-06T17:12:24.567Z,87.58
2023-05-06T17:14:26.938Z,87.20
2023-05-06T17:16:29.222Z,87.67
2023-05-06T17:18:31.396Z,87.76
2023-05-06T17:20:40.716Z,89.12
2023-05-06T17:22:50.429Z,88.78
2023-05-06T17:24:52.689Z,90.42
2023-05-06T17:26:54.762Z,88.80
2023-05-06T17:28:57.062Z,89.27
2023-05-06T17:30:59.680Z,89.45
2023-05-06T17:33:01.931Z,89.13
2023-05-06T17:35:04.483Z,89.24
2023-05-06T17:37:07.252Z,89.56
2023-05-06T17:39:09.725Z,89.21
2023-05-06T17:41:12.354Z,88.90
2023-05-06T17:43:14.612Z,88.39
2023-05-06T17:45:17.455Z,88.65
2023-05-06T17:47:22.978Z,87.51
2023-05-06T17:49:25.545Z,88.90
2023-05-06T17:51:27.852Z,87.70
2023-05-06T17:53:30.178Z,87.67
2023-05-06T17:55:32.458Z,87.49
2023-05-06T17:57:34.874Z,87.04
2023-05-06T17:59:37.412Z,87.81
2023-05-06T18:01:39.614Z,87.58
2023-05-06T18:03:41.943Z,87.75
2023-05-06T18:05:44.440Z,88.19
2023-05-06T18:07:47.139Z,87.62
2023-05-06T18:09:52.251Z,87.35
2023-05-06T18:11:54.475Z,87.44
2023-05-06T18:13:56.635Z,88.03
2023-05-06T18:15:58.785Z,88.30
2023-05-06T18:18:01.076Z,88.17
2023-05-06T18:20:03.860Z,88.43
2023-05-06T18:22:05.998Z,88.36
2023-05-06T18:24:16.088Z,88.05
2023-05-06T18:26:39.480Z,87.06
2023-05-06T18:28:41.562Z,86.98
2023-05-06T18:30:43.752Z,88.08
2023-05-06T18:32:45.954Z,87.23
2023-05-06T18:34:48.032Z,87.51
2023-05-06T18:36:50.290Z,86.61
2023-05-06T18:38:52.355Z,87.17
2023-05-06T18:40:54.584Z,87.70
2023-05-06T18:42:56.919Z,87.23
2023-05-06T18:44:59.638Z,86.84
2023-05-06T18:47:02.330Z,86.63
2023-05-06T18:49:04.685Z,86.68
2023-05-06T18:51:11.959Z,86.68
2023-05-06T18:53:14.152Z,85.86
2023-05-06T18:55:16.236Z,86.03
2023-05-06T18:57:19.910Z,86.39
2023-05-06T18:59:22.256Z,86.27
2023-05-06T19:01:25.326Z,86.04
2023-05-06T19:03:27.926Z,87.23
2023-05-06T19:05:30.321Z,86.77
2023-05-06T19:07:32.587Z,86.85
2023-05-06T19:09:37.549Z,86.53
2023-05-06T19:11:39.737Z,86.00
2023-05-06T19:13:44.672Z,85.76
2023-05-06T19:15:46.795Z,85.13
2023-05-06T19:17:48.931Z,85.40
2023-05-06T19:19:51.501Z,85.09
2023-05-06T19:21:54.105Z,85.36
2023-05-06T19:24:00.017Z,84.61
2023-05-06T19:26:02.739Z,84.88
2023-05-06T19:28:06.594Z,85.12
2023-05-06T19:30:09.950Z,85.28
2023-05-06T19:32:12.348Z,85.61
2023-05-06T19:34:14.414Z,86.26
2023-05-06T19:36:17.010Z,86.03
2023-05-06T19:38:19.963Z,86.14
2023-05-06T19:40:23.047Z,86.24
2023-05-06T19:42:25.176Z,85.63
2023-05-06T19:44:27.388Z,85.37
2023-05-06T19:46:29.503Z,85.83
2023-05-06T19:48:32.993Z,85.96
2023-05-06T19:50:36.908Z,85.63
2023-05-06T19:52:38.949Z,85.82
2023-05-06T19:54:41.873Z,85.54
2023-05-06T19:56:44.037Z,85.48
2023-05-06T19:58:46.237Z,84.93
2023-05-06T20:00:48.453Z,85.85
2023-05-06T20:02:50.803Z,85.80
2023-05-06T20:04:53.103Z,85.52
2023-05-06T20:06:55.257Z,85.23
2023-05-06T20:08:57.325Z,85.13
2023-05-06T20:10:59.480Z,84.36
2023-05-06T20:13:02.498Z,85.12
2023-05-06T20:15:05.310Z,85.53
2023-05-06T20:17:07.551Z,85.70
2023-05-06T20:19:09.822Z,86.02
2023-05-06T20:21:11.857Z,86.45
2023-05-06T20:23:14.033Z,85.80
2023-05-06T20:25:17.731Z,86.27
2023-05-06T20:27:21.568Z,85.50
2023-05-06T20:29:23.705Z,85.78
2023-05-06T20:31:25.880Z,85.70
2023-05-06T20:33:28.016Z,85.56
2023-05-06T20:35:30.296Z,86.09
2023-05-06T20:37:34.009Z,85.32
2023-05-06T20:39:36.687Z,86.01
2023-05-06T20:41:39.080Z,84.88
2023-05-06T20:43:41.409Z,84.53
2023-05-06T20:45:43.499Z,85.34
2023-05-06T20:47:45.836Z,85.23
2023-05-06T20:49:47.907Z,84.56
2023-05-06T20:51:50.039Z,84.61
2023-05-06T20:53:52.469Z,85.12
2023-05-06T20:55:54.821Z,86.16
2023-05-06T20:57:56.893Z,85.02
2023-05-06T20:59:58.904Z,84.65
2023-05-06T21:02:01.435Z,84.30
2023-05-06T21:04:04.917Z,84.27
2023-05-06T21:06:07.174Z,84.41
2023-05-06T21:08:09.146Z,84.20
2023-05-06T21:10:11.400Z,83.62
2023-05-06T21:12:13.420Z,84.14
2023-05-06T21:14:15.473Z,83.95
2023-05-06T21:16:17.580Z,83.57
2023-05-06T21:18:20.020Z,83.62
2023-05-06T21:20:22.297Z,83.54
2023-05-06T21:22:24.761Z,84.17
2023-05-06T21:24:26.917Z,84.18
2023-05-06T21:26:30.972Z,84.08
2023-05-06T21:28:32.956Z,83.83
2023-05-06T21:30:36.034Z,83.34
2023-05-06T21:32:38.495Z,83.41
2023-05-06T21:34:40.557Z,83.43
2023-05-06T21:36:42.569Z,83.61
2023-05-06T21:38:45.092Z,83.74
2023-05-06T21:40:47.118Z,83.75
2023-05-06T21:42:50.565Z,84.16
2023-05-06T21:44:52.515Z,84.06
2023-05-06T21:46:54.659Z,83.92
2023-05-06T21:48:57.209Z,82.98
2023-05-06T21:51:03.671Z,83.28
2023-05-06T21:53:05.786Z,83.18
2023-05-06T21:55:08.644Z,83.19
2023-05-06T21:57:12.674Z,84.19
2023-05-06T21:59:14.721Z,84.62
2023-05-06T22:01:17.052Z,83.55
2023-05-06T22:03:19.265Z,84.26
2023-05-06T22:05:21.775Z,83.85
2023-05-06T22:07:23.905Z,83.87
2023-05-06T22:09:26.130Z,84.11
2023-05-06T22:11:28.109Z,83.69
2023-05-06T22:13:30.204Z,83.32
2023-05-06T22:15:32.460Z,82.97
2023-05-06T22:17:34.883Z,83.04
2023-05-06T22:19:36.949Z,83.28
2023-05-06T22:21:39.528Z,83.08
2023-05-06T22:23:41.600Z,82.78
2023-05-06T22:25:43.599Z,82.61
2023-05-06T22:27:45.652Z,82.31
2023-05-06T22:29:47.596Z,82.14
2023-05-06T22:31:49.841Z,82.29
2023-05-06T22:33:55.679Z,83.08
2023-05-06T22:35:57.960Z,82.43
2023-05-06T22:38:00.055Z,82.18
2023-05-06T22:40:02.335Z,82.59
2023-05-06T22:42:04.264Z,82.16
2023-05-06T22:44:06.540Z,83.49
2023-05-06T22:46:08.668Z,82.44
2023-05-06T22:48:11.399Z,82.36
2023-05-06T22:50:13.488Z,82.16
2023-05-06T22:52:15.564Z,82.06
2023-05-06T22:54:17.608Z,81.35
2023-05-06T22:56:20.259Z,81.79
2023-05-06T22:58:22.241Z,81.09
2023-05-06T23:00:24.487Z,80.39
2023-05-06T23:02:26.703Z,80.26
2023-05-06T23:04:28.716Z,80.00
2023-05-06T23:06:31.900Z,79.48
2023-05-06T23:08:33.924Z,79.21
2023-05-06T23:10:36.619Z,79.24
2023-05-06T23:12:38.697Z,79.16
2023-05-06T23:14:40.859Z,78.81
2023-05-06T23:16:43.082Z,78.53
2023-05-06T23:18:46.367Z,78.51
2023-05-06T23:20:48.355Z,78.42
2023-05-06T23:22:50.541Z,77.53
2023-05-06T23:24:52.564Z,77.26
2023-05-06T23:26:54.681Z,77.24
2023-05-06T23:28:58.014Z,76.73
2023-05-06T23:31:00.735Z,76.75
2023-05-06T23:33:04.021Z,76.88
2023-05-06T23:35:07.914Z,76.38
2023-05-06T23:37:12.012Z,76.42
2023-05-06T23:39:14.069Z,76.52
2023-05-06T23:41:16.067Z,75.37
2023-05-06T23:43:18.028Z,75.93
2023-05-06T23:45:20.580Z,75.65
2023-05-06T23:47:24.579Z,75.38
2023-05-06T23:49:26.627Z,75.47
2023-05-06T23:51:28.644Z,75.43
2023-05-06T23:53:30.761Z,75.81
2023-05-06T23:55:33.052Z,75.90
2023-05-06T23:57:35.263Z,76.53
2023-05-06T23:59:37.436Z,76.16
